sensor_id;sensor_type;location;lat;lon;timestamp;P1;durP1;ratioP1;P2;durP2;ratioP2
31906;SDS011;18455;50.858;13.662;2023-04-03T00:02:02;4.27;;;1.77;;
31906;SDS011;18455;50.858;13.662;2023-04-03T00:07:02;5.20;;;2.03;;
31906;SDS011;18455;50.858;13.662;2023-04-03T00:12:02;3.97;;;1.60;;
31906;SDS011;18455;50.858;13.662;2023-04-03T00:17:03;7.47;;;1.90;;
31906;SDS011;18455;50.858;13.662;2023-04-03T00:22:03;4.97;;;1.70;;
31906;SDS011;18455;50.858;13.662;2023-04-03T00:27:04;4.80;;;1.87;;
31906;SDS011;18455;50.858;13.662;2023-04-03T00:32:05;2.80;;;1.63;;
31906;SDS011;18455;50.858;13.662;2023-04-03T00:37:05;4.50;;;1.70;;
31906;SDS011;18455;50.858;13.662;2023-04-03T00:42:06;7.97;;;2.30;;
31906;SDS011;18455;50.858;13.662;2023-04-03T00:47:07;7.97;;;2.30;;
31906;SDS011;18455;50.858;13.662;2023-04-03T00:52:11;4.23;;;2.20;;
31906;SDS011;18455;50.858;13.662;2023-04-03T00:57:13;4.23;;;2.00;;
31906;SDS011;18455;50.858;13.662;2023-04-03T01:02:15;3.23;;;1.60;;
31906;SDS011;18455;50.858;13.662;2023-04-03T01:07:20;4.93;;;1.90;;
31906;SDS011;18455;50.858;13.662;2023-04-03T01:12:24;5.33;;;1.80;;
31906;SDS011;18455;50.858;13.662;2023-04-03T01:17:33;6.17;;;2.03;;
31906;SDS011;18455;50.858;13.662;2023-04-03T01:22:35;5.83;;;1.87;;
31906;SDS011;18455;50.858;13.662;2023-04-03T01:27:41;6.20;;;1.73;;
31906;SDS011;18455;50.858;13.662;2023-04-03T01:32:42;5.33;;;1.67;;
31906;SDS011;18455;50.858;13.662;2023-04-03T01:37:42;4.50;;;2.07;;
31906;SDS011;18455;50.858;13.662;2023-04-03T01:42:43;6.30;;;1.87;;
31906;SDS011;18455;50.858;13.662;2023-04-03T01:47:44;6.17;;;1.70;;
31906;SDS011;18455;50.858;13.662;2023-04-03T01:52:44;5.07;;;2.00;;
31906;SDS011;18455;50.858;13.662;2023-04-03T01:57:44;6.40;;;2.10;;
31906;SDS011;18455;50.858;13.662;2023-04-03T02:02:45;5.47;;;2.20;;
31906;SDS011;18455;50.858;13.662;2023-04-03T02:07:45;4.43;;;1.70;;
31906;SDS011;18455;50.858;13.662;2023-04-03T02:12:46;4.23;;;1.73;;
31906;SDS011;18455;50.858;13.662;2023-04-03T02:17:46;6.30;;;1.90;;
31906;SDS011;18455;50.858;13.662;2023-04-03T02:22:48;3.20;;;1.63;;
31906;SDS011;18455;50.858;13.662;2023-04-03T02:27:48;6.03;;;2.03;;
31906;SDS011;18455;50.858;13.662;2023-04-03T02:32:48;4.87;;;1.50;;
31906;SDS011;18455;50.858;13.662;2023-04-03T02:37:49;5.73;;;2.20;;
31906;SDS011;18455;50.858;13.662;2023-04-03T02:42:50;12.60;;;2.20;;
31906;SDS011;18455;50.858;13.662;2023-04-03T02:47:51;7.40;;;2.30;;
31906;SDS011;18455;50.858;13.662;2023-04-03T02:52:52;4.03;;;1.90;;
31906;SDS011;18455;50.858;13.662;2023-04-03T02:57:52;10.70;;;2.60;;
31906;SDS011;18455;50.858;13.662;2023-04-03T03:02:52;9.33;;;2.33;;
31906;SDS011;18455;50.858;13.662;2023-04-03T03:07:53;6.60;;;1.90;;
31906;SDS011;18455;50.858;13.662;2023-04-03T03:12:54;4.67;;;1.90;;
31906;SDS011;18455;50.858;13.662;2023-04-03T03:17:54;6.33;;;2.00;;
31906;SDS011;18455;50.858;13.662;2023-04-03T03:22:55;5.80;;;2.30;;
31906;SDS011;18455;50.858;13.662;2023-04-03T03:27:56;5.50;;;2.10;;
31906;SDS011;18455;50.858;13.662;2023-04-03T03:32:57;3.43;;;1.80;;
31906;SDS011;18455;50.858;13.662;2023-04-03T03:37:57;4.77;;;1.93;;
31906;SDS011;18455;50.858;13.662;2023-04-03T03:42:57;7.53;;;2.10;;
31906;SDS011;18455;50.858;13.662;2023-04-03T03:47:58;4.27;;;1.93;;
31906;SDS011;18455;50.858;13.662;2023-04-03T03:52:58;10.63;;;2.57;;
31906;SDS011;18455;50.858;13.662;2023-04-03T03:57:59;6.20;;;2.10;;
31906;SDS011;18455;50.858;13.662;2023-04-03T04:03:01;14.20;;;2.43;;
31906;SDS011;18455;50.858;13.662;2023-04-03T04:08:04;5.60;;;2.13;;
31906;SDS011;18455;50.858;13.662;2023-04-03T04:13:05;7.97;;;2.20;;
31906;SDS011;18455;50.858;13.662;2023-04-03T04:18:05;7.00;;;2.13;;
31906;SDS011;18455;50.858;13.662;2023-04-03T04:23:06;6.57;;;2.17;;
31906;SDS011;18455;50.858;13.662;2023-04-03T04:28:07;7.20;;;2.07;;
31906;SDS011;18455;50.858;13.662;2023-04-03T04:33:08;9.70;;;2.10;;
31906;SDS011;18455;50.858;13.662;2023-04-03T04:38:09;4.57;;;2.03;;
31906;SDS011;18455;50.858;13.662;2023-04-03T04:43:09;12.30;;;2.60;;
31906;SDS011;18455;50.858;13.662;2023-04-03T04:48:14;7.40;;;1.90;;
31906;SDS011;18455;50.858;13.662;2023-04-03T04:53:15;10.50;;;2.30;;
31906;SDS011;18455;50.858;13.662;2023-04-03T04:58:16;11.23;;;2.60;;
31906;SDS011;18455;50.858;13.662;2023-04-03T05:03:17;10.83;;;2.80;;
31906;SDS011;18455;50.858;13.662;2023-04-03T05:08:18;6.27;;;2.33;;
31906;SDS011;18455;50.858;13.662;2023-04-03T05:13:19;5.23;;;2.40;;
31906;SDS011;18455;50.858;13.662;2023-04-03T05:18:19;8.10;;;2.13;;
31906;SDS011;18455;50.858;13.662;2023-04-03T05:23:20;7.20;;;2.47;;
31906;SDS011;18455;50.858;13.662;2023-04-03T05:28:21;6.97;;;2.60;;
31906;SDS011;18455;50.858;13.662;2023-04-03T05:33:22;9.60;;;1.90;;
31906;SDS011;18455;50.858;13.662;2023-04-03T05:38:25;12.90;;;2.50;;
31906;SDS011;18455;50.858;13.662;2023-04-03T05:43:27;5.47;;;2.30;;
31906;SDS011;18455;50.858;13.662;2023-04-03T05:48:29;4.70;;;2.03;;
31906;SDS011;18455;50.858;13.662;2023-04-03T05:53:30;6.73;;;2.33;;
31906;SDS011;18455;50.858;13.662;2023-04-03T05:58:35;10.03;;;2.33;;
31906;SDS011;18455;50.858;13.662;2023-04-03T06:03:36;7.53;;;2.33;;
31906;SDS011;18455;50.858;13.662;2023-04-03T06:08:36;8.53;;;2.50;;
31906;SDS011;18455;50.858;13.662;2023-04-03T06:13:38;6.60;;;2.17;;
31906;SDS011;18455;50.858;13.662;2023-04-03T06:18:39;10.23;;;2.73;;
31906;SDS011;18455;50.858;13.662;2023-04-03T06:23:39;7.33;;;2.60;;
31906;SDS011;18455;50.858;13.662;2023-04-03T06:28:40;6.97;;;2.57;;
31906;SDS011;18455;50.858;13.662;2023-04-03T06:33:40;6.70;;;2.40;;
31906;SDS011;18455;50.858;13.662;2023-04-03T06:38:41;10.40;;;2.93;;
31906;SDS011;18455;50.858;13.662;2023-04-03T06:43:42;6.90;;;2.83;;
31906;SDS011;18455;50.858;13.662;2023-04-03T06:48:43;7.07;;;2.67;;
31906;SDS011;18455;50.858;13.662;2023-04-03T06:53:44;6.57;;;3.53;;
31906;SDS011;18455;50.858;13.662;2023-04-03T06:58:45;6.90;;;2.63;;
31906;SDS011;18455;50.858;13.662;2023-04-03T07:03:46;6.80;;;2.60;;
31906;SDS011;18455;50.858;13.662;2023-04-03T07:08:48;6.43;;;2.67;;
31906;SDS011;18455;50.858;13.662;2023-04-03T07:13:49;6.50;;;2.43;;
31906;SDS011;18455;50.858;13.662;2023-04-03T07:18:49;7.77;;;2.27;;
31906;SDS011;18455;50.858;13.662;2023-04-03T07:23:50;6.17;;;2.73;;
31906;SDS011;18455;50.858;13.662;2023-04-03T07:28:51;9.67;;;3.23;;
31906;SDS011;18455;50.858;13.662;2023-04-03T07:33:51;9.60;;;2.93;;
31906;SDS011;18455;50.858;13.662;2023-04-03T07:38:52;6.13;;;2.83;;
31906;SDS011;18455;50.858;13.662;2023-04-03T07:43:52;9.80;;;2.60;;
31906;SDS011;18455;50.858;13.662;2023-04-03T07:48:53;6.33;;;2.93;;
31906;SDS011;18455;50.858;13.662;2023-04-03T07:53:53;4.50;;;2.30;;
31906;SDS011;18455;50.858;13.662;2023-04-03T07:58:54;7.77;;;2.50;;
31906;SDS011;18455;50.858;13.662;2023-04-03T08:03:54;10.00;;;2.70;;
31906;SDS011;18455;50.858;13.662;2023-04-03T08:08:55;5.43;;;2.20;;
31906;SDS011;18455;50.858;13.662;2023-04-03T08:13:56;7.00;;;3.10;;
31906;SDS011;18455;50.858;13.662;2023-04-03T08:18:56;10.33;;;3.50;;
31906;SDS011;18455;50.858;13.662;2023-04-03T08:23:56;10.33;;;4.30;;
31906;SDS011;18455;50.858;13.662;2023-04-03T08:28:57;12.97;;;5.03;;
31906;SDS011;18455;50.858;13.662;2023-04-03T08:33:57;12.70;;;6.70;;
31906;SDS011;18455;50.858;13.662;2023-04-03T08:38:58;9.23;;;3.93;;
31906;SDS011;18455;50.858;13.662;2023-04-03T08:49:25;8.90;;;3.07;;
31906;SDS011;18455;50.858;13.662;2023-04-03T08:54:32;4.67;;;2.40;;
31906;SDS011;18455;50.858;13.662;2023-04-03T08:59:34;7.37;;;3.30;;
31906;SDS011;18455;50.858;13.662;2023-04-03T09:04:37;17.07;;;4.70;;
31906;SDS011;18455;50.858;13.662;2023-04-03T09:09:39;6.03;;;2.30;;
31906;SDS011;18455;50.858;13.662;2023-04-03T09:14:46;7.73;;;2.80;;
31906;SDS011;18455;50.858;13.662;2023-04-03T09:20:09;6.80;;;2.60;;
31906;SDS011;18455;50.858;13.662;2023-04-03T09:25:25;7.37;;;2.77;;
31906;SDS011;18455;50.858;13.662;2023-04-03T09:30:27;8.00;;;2.63;;
31906;SDS011;18455;50.858;13.662;2023-04-03T09:35:29;7.87;;;2.93;;
31906;SDS011;18455;50.858;13.662;2023-04-03T09:40:39;6.73;;;2.40;;
31906;SDS011;18455;50.858;13.662;2023-04-03T09:45:41;8.87;;;2.10;;
31906;SDS011;18455;50.858;13.662;2023-04-03T09:55:51;6.77;;;2.67;;
31906;SDS011;18455;50.858;13.662;2023-04-03T10:00:58;4.27;;;2.17;;
31906;SDS011;18455;50.858;13.662;2023-04-03T10:06:00;8.90;;;2.23;;
31906;SDS011;18455;50.858;13.662;2023-04-03T10:11:06;5.77;;;2.30;;
31906;SDS011;18455;50.858;13.662;2023-04-03T10:16:14;7.20;;;2.00;;
31906;SDS011;18455;50.858;13.662;2023-04-03T10:21:29;7.03;;;2.20;;
31906;SDS011;18455;50.858;13.662;2023-04-03T10:26:39;4.80;;;1.93;;
31906;SDS011;18455;50.858;13.662;2023-04-03T10:32:20;3.73;;;2.10;;
31906;SDS011;18455;50.858;13.662;2023-04-03T10:48:11;7.10;;;1.90;;
31906;SDS011;18455;50.858;13.662;2023-04-03T10:53:24;5.70;;;1.90;;
31906;SDS011;18455;50.858;13.662;2023-04-03T11:04:24;3.70;;;1.60;;
31906;SDS011;18455;50.858;13.662;2023-04-03T11:09:30;9.27;;;3.03;;
31906;SDS011;18455;50.858;13.662;2023-04-03T11:14:34;2.70;;;1.83;;
31906;SDS011;18455;50.858;13.662;2023-04-03T11:19:38;5.13;;;2.23;;
31906;SDS011;18455;50.858;13.662;2023-04-03T11:24:42;4.13;;;1.50;;
31906;SDS011;18455;50.858;13.662;2023-04-03T11:29:43;5.50;;;2.00;;
31906;SDS011;18455;50.858;13.662;2023-04-03T11:34:45;5.93;;;1.67;;
31906;SDS011;18455;50.858;13.662;2023-04-03T11:39:53;3.73;;;1.70;;
31906;SDS011;18455;50.858;13.662;2023-04-03T12:00:51;5.03;;;1.67;;
31906;SDS011;18455;50.858;13.662;2023-04-03T12:37:06;3.57;;;1.93;;
31906;SDS011;18455;50.858;13.662;2023-04-03T12:47:30;4.47;;;1.80;;
31906;SDS011;18455;50.858;13.662;2023-04-03T12:57:41;4.40;;;1.70;;
31906;SDS011;18455;50.858;13.662;2023-04-03T13:02:43;5.87;;;1.73;;
31906;SDS011;18455;50.858;13.662;2023-04-03T13:07:52;1.93;;;1.40;;
31906;SDS011;18455;50.858;13.662;2023-04-03T13:12:59;4.60;;;1.40;;
31906;SDS011;18455;50.858;13.662;2023-04-03T13:23:27;2.70;;;1.43;;
31906;SDS011;18455;50.858;13.662;2023-04-03T13:28:29;7.10;;;1.57;;
31906;SDS011;18455;50.858;13.662;2023-04-03T13:33:31;2.10;;;1.53;;
31906;SDS011;18455;50.858;13.662;2023-04-03T13:44:17;8.17;;;1.83;;
31906;SDS011;18455;50.858;13.662;2023-04-03T13:49:22;7.63;;;1.87;;
31906;SDS011;18455;50.858;13.662;2023-04-03T13:54:31;3.33;;;1.60;;
31906;SDS011;18455;50.858;13.662;2023-04-03T13:59:36;3.33;;;1.77;;
31906;SDS011;18455;50.858;13.662;2023-04-03T14:09:36;3.53;;;1.47;;
31906;SDS011;18455;50.858;13.662;2023-04-03T14:14:37;1.23;;;1.10;;
31906;SDS011;18455;50.858;13.662;2023-04-03T14:19:39;3.63;;;1.27;;
31906;SDS011;18455;50.858;13.662;2023-04-03T14:24:40;2.67;;;1.60;;
31906;SDS011;18455;50.858;13.662;2023-04-03T14:29:40;7.73;;;1.87;;
31906;SDS011;18455;50.858;13.662;2023-04-03T14:34:41;4.57;;;1.63;;
31906;SDS011;18455;50.858;13.662;2023-04-03T14:39:43;3.47;;;1.50;;
31906;SDS011;18455;50.858;13.662;2023-04-03T14:44:44;2.77;;;1.40;;
31906;SDS011;18455;50.858;13.662;2023-04-03T14:49:45;2.87;;;1.40;;
31906;SDS011;18455;50.858;13.662;2023-04-03T14:54:45;2.63;;;1.70;;
31906;SDS011;18455;50.858;13.662;2023-04-03T14:59:46;6.07;;;1.40;;
31906;SDS011;18455;50.858;13.662;2023-04-03T15:04:46;5.00;;;1.73;;
31906;SDS011;18455;50.858;13.662;2023-04-03T15:09:46;5.40;;;1.53;;
31906;SDS011;18455;50.858;13.662;2023-04-03T15:14:47;7.37;;;1.87;;
31906;SDS011;18455;50.858;13.662;2023-04-03T15:19:47;2.87;;;1.80;;
31906;SDS011;18455;50.858;13.662;2023-04-03T15:24:48;4.13;;;1.87;;
31906;SDS011;18455;50.858;13.662;2023-04-03T15:29:48;4.67;;;1.37;;
31906;SDS011;18455;50.858;13.662;2023-04-03T15:34:49;4.30;;;1.63;;
31906;SDS011;18455;50.858;13.662;2023-04-03T15:39:49;5.07;;;1.60;;
31906;SDS011;18455;50.858;13.662;2023-04-03T15:44:49;5.10;;;1.63;;
31906;SDS011;18455;50.858;13.662;2023-04-03T15:49:50;8.90;;;1.60;;
31906;SDS011;18455;50.858;13.662;2023-04-03T15:54:50;2.90;;;1.27;;
31906;SDS011;18455;50.858;13.662;2023-04-03T15:59:50;2.27;;;1.37;;
31906;SDS011;18455;50.858;13.662;2023-04-03T16:04:51;5.47;;;1.60;;
31906;SDS011;18455;50.858;13.662;2023-04-03T16:09:51;9.27;;;1.70;;
31906;SDS011;18455;50.858;13.662;2023-04-03T16:14:52;3.07;;;1.40;;
31906;SDS011;18455;50.858;13.662;2023-04-03T16:19:53;5.27;;;2.03;;
31906;SDS011;18455;50.858;13.662;2023-04-03T16:24:55;2.90;;;2.13;;
31906;SDS011;18455;50.858;13.662;2023-04-03T16:29:55;3.27;;;1.73;;
31906;SDS011;18455;50.858;13.662;2023-04-03T16:34:56;4.23;;;2.37;;
31906;SDS011;18455;50.858;13.662;2023-04-03T16:39:57;5.43;;;1.90;;
31906;SDS011;18455;50.858;13.662;2023-04-03T16:44:58;4.20;;;2.30;;
31906;SDS011;18455;50.858;13.662;2023-04-03T16:50:00;6.33;;;2.57;;
31906;SDS011;18455;50.858;13.662;2023-04-03T16:55:01;3.47;;;1.67;;
31906;SDS011;18455;50.858;13.662;2023-04-03T17:00:02;5.07;;;1.60;;
31906;SDS011;18455;50.858;13.662;2023-04-03T17:05:03;2.23;;;1.70;;
31906;SDS011;18455;50.858;13.662;2023-04-03T17:10:03;5.23;;;2.27;;
31906;SDS011;18455;50.858;13.662;2023-04-03T17:15:04;3.67;;;1.50;;
31906;SDS011;18455;50.858;13.662;2023-04-03T17:20:05;3.90;;;1.67;;
31906;SDS011;18455;50.858;13.662;2023-04-03T17:25:06;11.03;;;7.70;;
31906;SDS011;18455;50.858;13.662;2023-04-03T17:30:07;8.50;;;5.70;;
31906;SDS011;18455;50.858;13.662;2023-04-03T17:35:08;11.60;;;9.03;;
31906;SDS011;18455;50.858;13.662;2023-04-03T17:40:08;8.53;;;5.77;;
31906;SDS011;18455;50.858;13.662;2023-04-03T17:45:09;19.30;;;13.97;;
31906;SDS011;18455;50.858;13.662;2023-04-03T17:50:09;7.67;;;4.97;;
31906;SDS011;18455;50.858;13.662;2023-04-03T17:55:10;19.00;;;12.03;;
31906;SDS011;18455;50.858;13.662;2023-04-03T18:00:12;14.60;;;8.50;;
31906;SDS011;18455;50.858;13.662;2023-04-03T18:05:13;16.63;;;7.53;;
31906;SDS011;18455;50.858;13.662;2023-04-03T18:10:14;22.20;;;9.10;;
31906;SDS011;18455;50.858;13.662;2023-04-03T18:15:15;17.43;;;5.90;;
31906;SDS011;18455;50.858;13.662;2023-04-03T18:20:16;8.53;;;5.40;;
31906;SDS011;18455;50.858;13.662;2023-04-03T18:25:17;7.50;;;2.87;;
31906;SDS011;18455;50.858;13.662;2023-04-03T18:30:17;5.77;;;3.57;;
31906;SDS011;18455;50.858;13.662;2023-04-03T18:35:18;4.27;;;2.47;;
31906;SDS011;18455;50.858;13.662;2023-04-03T18:40:18;7.87;;;2.50;;
31906;SDS011;18455;50.858;13.662;2023-04-03T18:45:20;11.67;;;3.40;;
31906;SDS011;18455;50.858;13.662;2023-04-03T18:50:21;12.20;;;4.07;;
31906;SDS011;18455;50.858;13.662;2023-04-03T18:55:21;4.57;;;2.73;;
31906;SDS011;18455;50.858;13.662;2023-04-03T19:00:22;5.90;;;3.03;;
31906;SDS011;18455;50.858;13.662;2023-04-03T19:05:22;4.27;;;2.80;;
31906;SDS011;18455;50.858;13.662;2023-04-03T19:10:25;3.57;;;2.23;;
31906;SDS011;18455;50.858;13.662;2023-04-03T19:15:26;6.87;;;2.67;;
31906;SDS011;18455;50.858;13.662;2023-04-03T19:20:26;5.93;;;2.90;;
31906;SDS011;18455;50.858;13.662;2023-04-03T19:25:27;6.67;;;3.40;;
31906;SDS011;18455;50.858;13.662;2023-04-03T19:30:27;5.60;;;2.60;;
31906;SDS011;18455;50.858;13.662;2023-04-03T19:35:27;5.83;;;2.90;;
31906;SDS011;18455;50.858;13.662;2023-04-03T19:40:28;4.93;;;2.53;;
31906;SDS011;18455;50.858;13.662;2023-04-03T19:45:28;4.27;;;2.77;;
31906;SDS011;18455;50.858;13.662;2023-04-03T19:50:29;4.17;;;2.73;;
31906;SDS011;18455;50.858;13.662;2023-04-03T19:55:31;7.13;;;2.90;;
31906;SDS011;18455;50.858;13.662;2023-04-03T20:00:32;4.70;;;2.77;;
31906;SDS011;18455;50.858;13.662;2023-04-03T20:05:32;4.33;;;2.47;;
31906;SDS011;18455;50.858;13.662;2023-04-03T20:10:32;2.80;;;2.17;;
31906;SDS011;18455;50.858;13.662;2023-04-03T20:15:34;3.90;;;2.43;;
31906;SDS011;18455;50.858;13.662;2023-04-03T20:20:39;3.47;;;2.20;;
31906;SDS011;18455;50.858;13.662;2023-04-03T20:25:43;3.87;;;2.27;;
31906;SDS011;18455;50.858;13.662;2023-04-03T20:30:45;4.63;;;2.17;;
31906;SDS011;18455;50.858;13.662;2023-04-03T20:35:47;5.87;;;1.73;;
31906;SDS011;18455;50.858;13.662;2023-04-03T20:40:48;5.63;;;2.30;;
31906;SDS011;18455;50.858;13.662;2023-04-03T20:45:48;3.37;;;2.40;;
31906;SDS011;18455;50.858;13.662;2023-04-03T20:50:48;7.30;;;3.83;;
31906;SDS011;18455;50.858;13.662;2023-04-03T20:55:55;4.70;;;2.47;;
31906;SDS011;18455;50.858;13.662;2023-04-03T21:00:58;3.77;;;2.90;;
31906;SDS011;18455;50.858;13.662;2023-04-03T21:25:13;5.00;;;2.60;;
31906;SDS011;18455;50.858;13.662;2023-04-03T21:30:14;5.93;;;2.40;;
31906;SDS011;18455;50.858;13.662;2023-04-03T21:35:15;4.10;;;2.37;;
31906;SDS011;18455;50.858;13.662;2023-04-03T21:40:15;6.83;;;2.50;;
31906;SDS011;18455;50.858;13.662;2023-04-03T21:45:16;4.73;;;2.50;;
31906;SDS011;18455;50.858;13.662;2023-04-03T21:50:18;4.97;;;2.50;;
31906;SDS011;18455;50.858;13.662;2023-04-03T21:55:18;8.23;;;2.67;;
31906;SDS011;18455;50.858;13.662;2023-04-03T22:00:19;4.63;;;2.70;;
31906;SDS011;18455;50.858;13.662;2023-04-03T22:05:20;7.03;;;3.20;;
31906;SDS011;18455;50.858;13.662;2023-04-03T22:10:21;5.50;;;2.63;;
31906;SDS011;18455;50.858;13.662;2023-04-03T22:15:21;4.77;;;3.50;;
31906;SDS011;18455;50.858;13.662;2023-04-03T22:20:22;3.57;;;2.67;;
31906;SDS011;18455;50.858;13.662;2023-04-03T22:25:22;6.70;;;2.70;;
31906;SDS011;18455;50.858;13.662;2023-04-03T22:30:22;7.17;;;2.93;;
31906;SDS011;18455;50.858;13.662;2023-04-03T22:35:23;7.07;;;3.57;;
31906;SDS011;18455;50.858;13.662;2023-04-03T22:40:23;7.40;;;2.73;;
31906;SDS011;18455;50.858;13.662;2023-04-03T22:45:23;4.40;;;2.90;;
31906;SDS011;18455;50.858;13.662;2023-04-03T22:50:24;4.00;;;2.60;;
31906;SDS011;18455;50.858;13.662;2023-04-03T22:55:24;9.00;;;3.07;;
31906;SDS011;18455;50.858;13.662;2023-04-03T23:00:25;5.33;;;2.97;;
31906;SDS011;18455;50.858;13.662;2023-04-03T23:05:27;4.50;;;3.27;;
31906;SDS011;18455;50.858;13.662;2023-04-03T23:10:27;5.67;;;2.93;;
31906;SDS011;18455;50.858;13.662;2023-04-03T23:15:28;7.83;;;2.93;;
31906;SDS011;18455;50.858;13.662;2023-04-03T23:20:28;3.93;;;2.60;;
31906;SDS011;18455;50.858;13.662;2023-04-03T23:25:29;5.13;;;2.80;;
31906;SDS011;18455;50.858;13.662;2023-04-03T23:30:29;5.67;;;3.07;;
31906;SDS011;18455;50.858;13.662;2023-04-03T23:35:30;5.50;;;2.67;;
31906;SDS011;18455;50.858;13.662;2023-04-03T23:40:31;4.47;;;2.73;;
31906;SDS011;18455;50.858;13.662;2023-04-03T23:45:31;7.20;;;3.00;;
31906;SDS011;18455;50.858;13.662;2023-04-03T23:50:31;5.33;;;2.90;;
31906;SDS011;18455;50.858;13.662;2023-04-03T23:55:32;6.20;;;3.00;;
